Milano, TX (76556)

6:36 AM CST on December 06, 2016 (GMT -0600)
APRSWXNET | | Change Station
Active Advisory: Dense Fog Advisory

Elev 471 ft 30.80 °N, 96.76 °W | Updated 27 minutes ago

Clear
Clear
46 °F
Feels Like 46 °F
N
0
Wind Variable Wind from West
Gusts 1.0 mph

Today
High -- | Low -- °F
--% Chance of Precip.
Yesterday
High -- | Low -- °F
Precip. -- in
Pressure 29.81 in
Visibility 10.0 miles
Clouds Clear
Windchill 46 °F
Dew Point 45 °F
Humidity 98%
Rainfall in
Snow Depth Not available.
7:11 AM 5:25 PM
Waxing Crescent, 41% visible
METAR KT35 061215Z AUTO 00000KT 10SM CLR 09/08 A2981 RMK AO2 T00850078
Pressure 29.81 in
Visibility 10.0 miles
Clouds Clear
Windchill 46 °F
Dew Point 45 °F
Humidity 98%
Rainfall in
Snow Depth Not available.
7:11 AM 5:25 PM
Waxing Crescent, 41% visible
METAR KT35 061215Z AUTO 00000KT 10SM CLR 09/08 A2981 RMK AO2 T00850078

10-Day Weather Forecast

Almanac

Astronomy

Dec. 06, 2016 Rise Set
Actual Time
Civil Twilight
Nautical Twilight
Astronomical Twilight
Moon
Length of Visible Light
Length of Day
Tomorrow will be .
, % of the Moon is Illuminated

Today's Extremes

State Highs State Lows

Community

WunderPhotos

Upload Photos

1,955,936 photos uploaded!

WunderBlog® & News

Nearby

Air Quality

  Air Quality AQ Index Pollutant
Not available.

Snow Depth

Station Depth Elevation

Earthquake Activity

City Distance Mag. Time & Date
Minimum magnitude displayed is 2.5.

Coastal Water Temperatures

Place Temperature

Stations

Nearby Weather Stations

Station Location Temp. Windchill Dew Point Humidity Wind Precip. Elev Updated Type
                   

Watches & Warnings

Dense Fog Advisory
Issued: 6:35 AM CST Dec. 6, 2016 – National Weather Service

... Dense fog advisory remains in effect until 11 am CST this
morning...

* visibility... half a mile with occasionally a quarter of a mile
or less.

* Location... along and south of Interstate 20 and generally along
and east of Interstate 35 and 35 west... including the
Interstate 45 corridor.

* Timing... through 11 am.

* Impacts... visibility restrictions may produce hazardous
driving conditions during early morning commutes.

Precautionary/preparedness actions...

A dense fog advisory means visibilities will be reduced to less
than one quarter mile. If driving... slow down... use your low-beam
headlights... and leave plenty of distance between you and the
vehicle ahead of you.